Airfield :
LOGIN :

Register | Disclaimer

   EN    FR    IT 

 










Legend :    VFR   Marginal VFR   IFR   Intensive IFR   Very Intensive IFR
Visi :
Ceiling :
>= 8 km
>= 3000ft
5 to 8 km
1000 to 3000 ft
1500m to 5 km
500 to 1000 ft
800 to 1500m
200 to 500 ft
< 800m
< 200 ft
Symbols :   Thunderstorms  Fog  Heavy snow  Heavy precipitations  Wind > 20 kt
SIGMETs :     Misc.  Thunderstorms  Icing  Turbulence  Mountain Waves  Volcanic Ashes






- Airport Elevation : 220 ft
- IATA code : CWL


EGFF - Cardiff Rhoose

CURRENT METAR :
  • 071620Z AUTO 25006KT 9999 NCD 11/02 Q1016

EXPIRED METARs :
  • 071550Z AUTO 23007KT 210V270 9999 NCD 12/02 Q1016
  • 071520Z AUTO 26005KT 210V300 9999 NCD 13/00 Q1016
  • 071450Z AUTO 29006KT 230V360 9999 NCD 13/M01 Q1016
  • 071420Z AUTO 30009KT 260V330 9999 NCD 13/M02 Q1016
  • 071350Z AUTO 30009KT 250V330 9999 NCD 13/M01 Q1017

TAF TAF EGFF
Valid from the 07 at 12:00 until the 08 at 12:00 UTC


071102Z 0712/0812 26010KT 9999 FEW035
BECMG 0717/0720 13010KT
BECMG 0723/0802 -RA BKN009
TEMPO 0723/0802 8000
TEMPO 0802/0812 3000 RADZ BKN004
PROB30
TEMPO 0802/0809 +RA
PROB30
TEMPO 0802/0807 14015G25KT
BECMG 0807/0810 21020G30KT
PROB30
TEMPO 0809/0812 BKN014
ATIS : +44 1446 729 319



MET'MAP, your aeronautical weather chart ! - Copyright ORBIFLY December 2007 - Disclaimer

ORBIFLY MET'MAP TEAM :

Programming & Development : Alexandra Zaïnal
Concept & original design : Baudouin d'Aumeries
Assistance for programming : Marc-Olivier Méhu
Technical & hardware support : Manuel Goepfert

Contact : metmap@orbifly.com




SOURCES & CREDITS :

   NOAA